Time;durP1;ratioP1;P1;durP2;ratioP2;P2;SDS_P1;SDS_P2;PMS_P1;PMS_P2;Temp;Humidity;BMP_temperature;BMP_pressure;BME280_temperature;BME280_humidity;BME280_pressure;Samples;Min_cycle;Max_cycle;Signal;HPM_P1;HPM_P2
2021/07/13 00:00:44;;;;;;;6.67;4.22;;;;;;;21.89;100.00;100556.23;1697468;83;21457;-48
2021/07/13 00:03:11;;;;;;;5.28;4.37;;;;;;;21.88;100.00;100558.61;1695066;83;21118;-41
2021/07/13 00:05:38;;;;;;;4.85;4.35;;;;;;;21.86;100.00;100549.78;1694477;83;21446;-43
2021/07/13 00:08:07;;;;;;;4.85;4.45;;;;;;;21.83;100.00;100556.89;1693093;83;20988;-39
2021/07/13 00:10:37;;;;;;;4.67;4.28;;;;;;;21.80;100.00;100552.64;1694733;83;21044;-40
2021/07/13 00:13:05;;;;;;;5.20;4.70;;;;;;;21.78;100.00;100559.23;1698061;84;21453;-40
2021/07/13 00:15:38;;;;;;;4.30;3.83;;;;;;;21.76;100.00;100564.81;1698416;83;20963;-42
2021/07/13 00:18:07;;;;;;;5.30;4.80;;;;;;;21.73;100.00;100571.92;1690021;84;20991;-43
2021/07/13 00:20:34;;;;;;;8.08;4.00;;;;;;;21.70;100.00;100569.53;1696268;83;20950;-41
2021/07/13 00:23:01;;;;;;;4.22;3.83;;;;;;;21.70;100.00;100570.89;1697759;83;21024;-41
2021/07/13 00:25:30;;;;;;;6.03;4.15;;;;;;;21.68;100.00;100568.84;1697567;83;20961;-40
2021/07/13 00:27:58;;;;;;;6.20;4.15;;;;;;;21.67;100.00;100571.22;1695140;84;20989;-43
2021/07/13 00:30:25;;;;;;;4.35;3.83;;;;;;;21.66;100.00;100568.14;1690882;83;20972;-42
2021/07/13 00:32:53;;;;;;;4.78;3.87;;;;;;;21.65;100.00;100573.75;1696379;83;20932;-42
2021/07/13 00:35:19;;;;;;;5.15;4.12;;;;;;;21.64;100.00;100570.16;1697910;83;20981;-41
2021/07/13 00:37:47;;;;;;;6.05;4.95;;;;;;;21.64;100.00;100570.16;1691989;83;20968;-42
2021/07/13 00:40:15;;;;;;;4.12;3.72;;;;;;;21.63;100.00;100572.53;1692017;83;21444;-40
2021/07/13 00:42:46;;;;;;;4.58;4.17;;;;;;;21.63;100.00;100569.82;1690492;84;21448;-40
2021/07/13 00:45:13;;;;;;;5.08;4.58;;;;;;;21.61;100.00;100561.83;1693576;84;21453;-40
2021/07/13 00:47:41;;;;;;;5.00;4.50;;;;;;;21.57;100.00;100565.89;1693631;84;20929;-40
2021/07/13 00:50:08;;;;;;;4.40;4.00;;;;;;;21.54;100.00;100562.12;1696059;83;20989;-46
2021/07/13 00:52:35;;;;;;;6.60;4.50;;;;;;;21.50;100.00;100563.47;1697678;82;21483;-41
2021/07/13 00:55:03;;;;;;;5.17;4.20;;;;;;;21.48;100.00;100556.50;1701535;82;21009;-44
2021/07/13 00:57:30;;;;;;;5.47;4.60;;;;;;;21.46;100.00;100561.22;1709250;83;21285;-41
2021/07/13 00:59:58;;;;;;;5.00;4.47;;;;;;;21.45;100.00;100564.95;1707484;82;21030;-40
2021/07/13 01:02:24;;;;;;;4.72;4.17;;;;;;;21.44;100.00;100560.01;1700333;82;20984;-39
2021/07/13 01:05:00;;;;;;;4.75;4.25;;;;;;;21.45;100.00;100563.60;1707048;82;21059;-40
2021/07/13 01:07:39;;;;;;;4.50;4.10;;;;;;;21.46;100.00;100566.64;1706739;83;20985;-39
2021/07/13 01:10:23;;;;;;;7.10;4.85;;;;;;;21.46;100.00;100566.64;1704411;82;21467;-38
2021/07/13 01:13:23;;;;;;;5.53;4.90;;;;;;;21.44;100.00;100564.59;1706458;82;21506;-41
2021/07/13 01:15:56;;;;;;;5.12;4.25;;;;;;;21.44;100.00;100564.59;1687344;83;20980;-39
2021/07/13 01:18:28;;;;;;;5.53;5.03;;;;;;;21.43;100.00;100568.33;1706979;82;21023;-40
2021/07/13 01:21:32;;;;;;;5.12;4.65;;;;;;;21.42;100.00;100567.95;1661170;84;21005;-38
2021/07/13 01:24:44;;;;;;;8.15;4.87;;;;;;;21.42;100.00;100568.84;1701081;82;20958;-36
2021/07/13 01:27:40;;;;;;;5.12;4.62;;;;;;;21.43;100.00;100561.55;1704723;82;20953;-40
2021/07/13 01:30:13;;;;;;;5.60;4.97;;;;;;;21.39;100.00;100561.87;1705397;82;20975;-38
2021/07/13 01:32:40;;;;;;;5.45;4.95;;;;;;;21.33;100.00;100566.52;1704800;82;21020;-40
2021/07/13 01:35:11;;;;;;;6.28;5.40;;;;;;;21.28;100.00;100563.94;1706318;83;21416;-39
2021/07/13 01:37:38;;;;;;;;;;;;;;;21.26;100.00;100568.15;1707405;82;20968;-39
2021/07/13 01:40:08;;;;;;;5.80;5.20;;;;;;;21.25;100.00;100563.75;1707804;82;20117;-41
2021/07/13 01:42:36;;;;;;;5.10;4.60;;;;;;;21.26;100.00;100560.52;1705786;82;20988;-38
2021/07/13 01:45:04;;;;;;;6.12;4.90;;;;;;;21.26;100.00;100568.66;1704634;82;20968;-37
2021/07/13 01:47:31;;;;;;;5.95;5.30;;;;;;;21.26;100.00;100558.66;1705148;82;20941;-39
2021/07/13 01:49:59;;;;;;;5.58;5.08;;;;;;;21.24;100.00;100562.53;1704332;82;20981;-38
2021/07/13 01:52:26;;;;;;;5.67;4.83;;;;;;;21.25;100.00;100566.97;1702828;82;20957;-39
2021/07/13 01:54:53;;;;;;;5.42;4.53;;;;;;;21.25;100.00;100562.90;1705906;82;20948;-37
2021/07/13 01:57:21;;;;;;;5.15;4.65;;;;;;;21.24;100.00;100564.73;1703022;83;21443;-41
2021/07/13 01:59:48;;;;;;;5.00;4.50;;;;;;;21.25;100.00;100568.32;1703809;82;20962;-41
2021/07/13 02:02:14;;;;;;;5.03;3.75;;;;;;;21.26;100.00;100577.64;1699318;83;21503;-42
2021/07/13 02:04:41;;;;;;;4.92;4.42;;;;;;;21.27;100.00;100580.72;1704232;83;21043;-41
2021/07/13 02:07:09;;;;;;;4.58;4.15;;;;;;;21.28;100.00;100577.49;1672111;83;20982;-42
2021/07/13 02:09:36;;;;;;;5.28;4.78;;;;;;;21.27;100.00;100574.41;1705050;82;21027;-42
2021/07/13 02:12:04;;;;;;;5.60;5.10;;;;;;;21.25;100.00;100574.59;1706361;82;21024;-41
2021/07/13 02:14:32;;;;;;;4.97;4.58;;;;;;;21.21;100.00;100578.61;1705349;82;20991;-40
2021/07/13 02:17:00;;;;;;;5.20;4.70;;;;;;;21.20;100.00;100574.21;1703387;82;20996;-38
2021/07/13 02:19:28;;;;;;;6.05;4.97;;;;;;;21.18;100.00;100578.42;1706851;82;20932;-40
2021/07/13 02:21:57;;;;;;;5.40;4.90;;;;;;;21.17;100.00;100582.66;1707399;83;20936;-40
2021/07/13 02:24:25;;;;;;;5.92;4.87;;;;;;;21.17;100.00;100571.31;1703655;82;20997;-41
2021/07/13 02:26:58;;;;;;;5.67;5.17;;;;;;;21.16;100.00;100576.88;1668348;84;21367;-41
2021/07/13 02:29:48;;;;;;;5.37;4.87;;;;;;;21.15;100.00;100577.89;1702815;82;21020;-41
2021/07/13 02:33:02;;;;;;;7.30;4.83;;;;;;;21.15;100.00;100580.61;1700206;83;21071;-42
2021/07/13 02:36:01;;;;;;;5.22;4.65;;;;;;;21.15;100.00;100573.83;1547852;91;21540;-42
2021/07/13 02:38:28;;;;;;;5.20;4.55;;;;;;;21.17;100.00;100582.66;1549878;90;21052;-40
2021/07/13 02:40:55;;;;;;;4.95;4.55;;;;;;;21.16;100.00;100586.36;1549359;91;21047;-43
2021/07/13 02:43:21;;;;;;;6.10;5.20;;;;;;;21.14;100.00;100587.89;1548909;90;21454;-42
2021/07/13 02:45:51;;;;;;;5.78;4.25;;;;;;;21.14;100.00;100590.61;1523389;92;20993;-43
2021/07/13 02:48:19;;;;;;;5.22;4.72;;;;;;;21.14;100.00;100589.73;1549589;90;21026;-41
2021/07/13 02:50:46;;;;;;;5.85;4.83;;;;;;;21.14;100.00;100598.73;1521382;92;20969;-42
2021/07/13 02:53:13;;;;;;;6.45;4.65;;;;;;;21.15;100.00;100600.94;1486844;94;21109;-43
2021/07/13 02:55:42;;;;;;;5.40;4.53;;;;;;;21.17;100.00;100603.84;1488697;94;21044;-40
2021/07/13 02:58:09;;;;;;;4.97;4.50;;;;;;;21.18;100.00;100606.04;1471055;94;21081;-44
2021/07/13 03:00:35;;;;;;;5.58;4.60;;;;;;;21.17;100.00;100604.35;1550036;91;21484;-38
2021/07/13 03:03:02;;;;;;;5.47;4.97;;;;;;;21.14;100.00;100602.80;1550941;90;21019;-41
2021/07/13 03:05:30;;;;;;;4.95;4.45;;;;;;;21.13;100.00;100607.02;1549194;90;21070;-43
2021/07/13 03:07:56;;;;;;;4.28;3.87;;;;;;;21.13;100.00;100604.30;1554122;90;21052;-39
2021/07/13 03:10:24;;;;;;;4.90;4.37;;;;;;;21.13;100.00;100604.30;1535606;86;21490;-40
2021/07/13 03:12:54;;;;;;;4.62;4.22;;;;;;;21.13;100.00;100603.80;1622994;86;21262;-41
2021/07/13 03:15:29;;;;;;;5.90;4.58;;;;;;;21.15;100.00;100598.23;1657429;84;20967;-48
2021/07/13 03:17:58;;;;;;;6.67;4.30;;;;;;;21.15;100.00;100590.09;1637030;84;21006;-41
2021/07/13 03:20:27;;;;;;;5.12;4.62;;;;;;;21.13;100.00;100590.23;1657545;84;20983;-41
2021/07/13 03:22:54;;;;;;;5.55;4.33;;;;;;;21.11;100.00;100586.83;1649954;84;21104;-43
2021/07/13 03:25:33;;;;;;;5.40;4.90;;;;;;;21.13;100.00;100579.91;1658438;84;20968;-43
2021/07/13 03:28:00;;;;;;;4.90;4.42;;;;;;;21.14;100.00;100577.53;1619610;86;21012;-44
2021/07/13 03:30:26;;;;;;;5.80;5.30;;;;;;;21.15;100.00;100569.77;1608071;87;20960;-41
2021/07/13 03:32:53;;;;;;;6.87;5.58;;;;;;;21.18;100.00;100578.42;1655851;84;20948;-43
2021/07/13 03:35:22;;;;;;;7.55;6.28;;;;;;;21.22;100.00;100585.75;1659404;84;20980;-40
2021/07/13 03:37:50;;;;;;;6.90;6.20;;;;;;;21.26;100.00;100591.19;1656263;84;21616;-39
2021/07/13 03:40:19;;;;;;;6.92;6.22;;;;;;;21.30;100.00;100590.39;1636658;86;21505;-41
2021/07/13 03:42:46;;;;;;;7.17;6.47;;;;;;;21.34;100.00;100591.77;1634864;86;21065;-41
2021/07/13 03:45:15;;;;;;;12.70;6.42;;;;;;;21.40;100.00;100592.55;1652116;84;21464;-43
2021/07/13 03:47:51;;;;;;;8.05;7.22;;;;;;;21.44;100.00;100596.63;1653257;85;21990;-46
2021/07/13 03:50:22;;;;;;;7.53;6.72;;;;;;;21.46;100.00;100591.90;1655448;84;21052;-40
2021/07/13 03:52:49;;;;;;;12.40;7.83;;;;;;;21.48;100.00;100585.82;1627083;86;21029;-41
2021/07/13 03:55:21;;;;;;;6.60;5.95;;;;;;;21.52;100.00;100585.86;1618242;86;21091;-43
2021/07/13 03:57:52;;;;;;;7.50;6.22;;;;;;;21.54;100.00;100585.17;1621514;86;21025;-41
2021/07/13 04:00:19;;;;;;;7.03;5.28;;;;;;;21.59;100.00;100595.05;1623144;86;21023;-40
2021/07/13 04:02:45;;;;;;;5.95;5.35;;;;;;;21.61;100.00;100592.19;1597727;88;21019;-42
2021/07/13 04:05:13;;;;;;;5.70;5.20;;;;;;;21.66;100.00;100592.56;1602768;87;21144;-43
2021/07/13 04:07:40;;;;;;;5.15;4.37;;;;;;;21.73;100.00;100594.14;1622588;86;21571;-43
2021/07/13 04:10:08;;;;;;;5.45;4.95;;;;;;;21.77;100.00;100593.67;1657211;84;20996;-41
2021/07/13 04:12:35;;;;;;;6.58;5.17;;;;;;;21.84;100.00;100595.22;1707832;83;21008;-40
2021/07/13 04:15:04;;;;;;;5.53;5.03;;;;;;;21.93;100.00;100601.56;1708782;82;20932;-40
2021/07/13 04:17:31;;;;;;;7.10;5.33;;;;;;;22.01;100.00;100604.31;1707199;83;20960;-40
2021/07/13 04:19:58;;;;;;;7.62;4.75;;;;;;;22.08;100.00;100605.38;1705326;83;20973;-40
2021/07/13 04:22:30;;;;;;;4.97;3.95;;;;;;;22.13;100.00;100602.19;1704263;82;21028;-43
2021/07/13 04:24:57;;;;;;;5.05;4.17;;;;;;;22.18;100.00;100599.84;1708394;82;20959;-44
2021/07/13 04:27:24;;;;;;;4.65;4.25;;;;;;;22.23;100.00;100602.44;1706335;82;21050;-48
2021/07/13 04:29:51;;;;;;;3.98;3.60;;;;;;;22.30;100.00;100605.84;1706980;83;21007;-49
2021/07/13 04:32:18;;;;;;;4.25;3.67;;;;;;;22.36;100.00;100606.56;1704147;82;20976;-48
2021/07/13 04:34:45;;;;;;;4.17;3.77;;;;;;;22.39;100.00;100600.80;1705782;83;20980;-49
2021/07/13 04:37:11;;;;;;;5.05;3.67;;;;;;;22.43;100.00;100594.88;1709141;83;20956;-45
2021/07/13 04:39:39;;;;;;;5.25;3.42;;;;;;;22.49;100.00;100589.29;1705285;82;21026;-51
2021/07/13 04:42:06;;;;;;;3.75;3.42;;;;;;;22.53;100.00;100585.24;1705233;82;21366;-41
2021/07/13 04:44:33;;;;;;;4.55;3.77;;;;;;;22.57;100.00;100584.39;1703746;83;21404;-46
2021/07/13 04:47:00;;;;;;;4.30;3.50;;;;;;;22.60;100.00;100584.93;1705392;83;20980;-41
2021/07/13 04:49:31;;;;;;;3.80;3.47;;;;;;;22.66;100.00;100584.77;1704442;82;20961;-37
2021/07/13 04:51:56;;;;;;;4.45;3.15;;;;;;;22.72;100.00;100585.97;1706929;83;20948;-37
2021/07/13 04:54:23;;;;;;;4.22;3.83;;;;;;;22.76;100.00;100581.39;1703604;82;20992;-44
2021/07/13 04:56:49;;;;;;;4.17;3.77;;;;;;;22.79;100.00;100578.34;1705631;82;21039;-45
2021/07/13 04:59:16;;;;;;;4.20;3.80;;;;;;;22.83;100.00;100577.48;1706600;82;20929;-44
2021/07/13 05:01:44;;;;;;;9.13;4.10;;;;;;;22.86;100.00;100571.73;1698222;82;20943;-45
2021/07/13 05:04:15;;;;;;;3.85;3.45;;;;;;;22.90;100.00;100571.72;1704837;82;21098;-43
2021/07/13 05:06:44;;;;;;;3.90;3.50;;;;;;;22.93;100.00;100570.53;1702286;82;21472;-43
2021/07/13 05:09:11;;;;;;;3.77;3.45;;;;;;;22.96;100.00;100564.79;1703892;82;21452;-41
2021/07/13 05:11:38;;;;;;;3.92;3.52;;;;;;;22.99;100.00;100551.73;1708708;82;20996;-39
2021/07/13 05:14:06;;;;;;;4.37;3.27;;;;;;;23.02;100.00;100554.10;1701604;82;20936;-42
2021/07/13 05:16:32;;;;;;;6.70;4.28;;;;;;;23.05;100.00;100549.68;1705977;82;20968;-42
2021/07/13 05:19:00;;;;;;;4.08;3.33;;;;;;;23.09;100.00;100545.61;1703746;83;21000;-41
2021/07/13 05:21:27;;;;;;;5.00;3.90;;;;;;;23.13;100.00;100541.19;1705974;82;20955;-41
2021/07/13 05:23:56;;;;;;;4.08;3.67;;;;;;;23.16;100.00;100544.92;1707651;82;20988;-41
2021/07/13 05:26:22;;;;;;;4.95;3.45;;;;;;;23.18;100.00;100536.94;1707170;82;21044;-43
2021/07/13 05:28:52;;;;;;;5.50;3.85;;;;;;;23.23;100.00;100547.30;1706679;82;20964;-45
2021/07/13 05:31:19;;;;;;;4.28;3.77;;;;;;;23.25;100.00;100541.19;1703862;82;20984;-47
2021/07/13 05:33:46;;;;;;;5.75;3.62;;;;;;;23.28;100.00;100544.92;1705682;82;20976;-40
2021/07/13 05:36:14;;;;;;;5.42;3.02;;;;;;;23.31;100.00;100541.88;1703065;82;20968;-42
2021/07/13 05:38:41;;;;;;;4.25;3.62;;;;;;;23.34;100.00;100542.89;1706730;82;20975;-43
2021/07/13 05:41:07;;;;;;;3.90;3.47;;;;;;;23.35;100.00;100543.22;1709633;82;21553;-54
2021/07/13 05:43:34;;;;;;;4.92;3.90;;;;;;;23.39;100.00;100543.23;1705265;82;20980;-43
2021/07/13 05:46:01;;;;;;;4.30;3.65;;;;;;;23.43;100.00;100541.84;1704083;82;21061;-50
2021/07/13 05:48:28;;;;;;;5.40;3.65;;;;;;;23.46;100.00;100538.81;1704932;82;20979;-47
2021/07/13 05:50:55;;;;;;;6.00;4.67;;;;;;;23.49;100.00;100547.13;1708333;82;21011;-47
2021/07/13 05:53:22;;;;;;;4.75;4.25;;;;;;;23.51;100.00;100541.86;1709570;83;21604;-46
2021/07/13 05:55:49;;;;;;;4.80;4.37;;;;;;;23.57;100.00;100547.63;1707258;82;20968;-40
2021/07/13 05:58:19;;;;;;;4.30;3.62;;;;;;;23.62;100.00;100546.08;1672872;84;21005;-42
2021/07/13 06:00:44;;;;;;;4.62;4.22;;;;;;;23.67;100.00;100546.93;1705972;82;21444;-42
2021/07/13 06:03:10;;;;;;;5.35;4.15;;;;;;;23.70;100.00;100546.06;1707901;82;21440;-42
2021/07/13 06:05:38;;;;;;;5.10;4.70;;;;;;;23.76;100.00;100554.06;1707869;82;21013;-43
2021/07/13 06:08:05;;;;;;;4.90;4.40;;;;;;;23.81;100.00;100557.63;1705823;82;21397;-41
2021/07/13 06:10:32;;;;;;;4.87;4.08;;;;;;;23.84;100.00;100549.98;1704119;83;20969;-43
2021/07/13 06:12:58;;;;;;;5.08;4.33;;;;;;;23.89;100.00;100553.52;1707585;82;20984;-46
2021/07/13 06:15:26;;;;;;;5.17;4.35;;;;;;;23.93;100.00;100551.64;1706669;82;20996;-43
2021/07/13 06:17:53;;;;;;;7.15;4.60;;;;;;;23.97;100.00;100554.36;1702829;82;20995;-40
2021/07/13 06:20:20;;;;;;;4.97;4.58;;;;;;;24.03;100.00;100554.69;1705458;82;21510;-40
2021/07/13 06:22:47;;;;;;;5.42;4.92;;;;;;;24.07;100.00;100551.44;1701689;82;21036;-40
2021/07/13 06:25:18;;;;;;;10.08;5.37;;;;;;;24.11;100.00;100553.28;1703059;82;21851;-40
2021/07/13 06:27:49;;;;;;;7.08;5.87;;;;;;;24.16;100.00;100550.36;1703443;82;20985;-40
2021/07/13 06:33:32;;;;;;;4.92;4.47;;;;;;;24.31;100.00;100549.11;1780685;78;22247;-37
2021/07/13 06:35:59;;;;;;;4.87;4.47;;;;;;;24.30;100.00;100548.78;1752643;80;21362;-39
2021/07/13 06:38:26;;;;;;;5.05;4.53;;;;;;;24.33;100.00;100550.30;1765379;80;20995;-37
2021/07/13 06:40:54;;;;;;;7.08;6.10;;;;;;;24.36;100.00;100545.86;1746276;80;21355;-36
2021/07/13 06:43:21;;;;;;;6.15;4.90;;;;;;;24.38;100.00;100541.08;1722582;81;20959;-36
2021/07/13 06:45:49;;;;;;;6.37;4.85;;;;;;;24.43;100.00;100548.73;1692818;82;21551;-43
2021/07/13 06:48:16;;;;;;;5.85;4.50;;;;;;;24.46;100.00;100545.15;1700012;82;20971;-43
2021/07/13 06:50:43;;;;;;;7.75;5.20;;;;;;;24.49;100.00;100546.15;1702544;82;21008;-42
2021/07/13 06:53:10;;;;;;;5.78;4.75;;;;;;;24.55;100.00;100537.27;1704689;82;21882;-44
2021/07/13 06:55:37;;;;;;;5.75;5.25;;;;;;;24.60;100.00;100542.20;1699543;83;21463;-43
2021/07/13 06:58:03;;;;;;;27.80;13.00;;;;;;;24.66;100.00;100541.98;1706432;82;21016;-44
2021/07/13 07:00:45;;;;;;;9.75;6.62;;;;;;;24.71;100.00;100547.22;1699807;83;21063;-45
2021/07/13 07:03:17;;;;;;;6.40;5.47;;;;;;;24.75;100.00;100540.39;1717907;82;21371;-43
2021/07/13 07:05:43;;;;;;;6.22;5.40;;;;;;;24.81;100.00;100541.02;1701963;82;21058;-38
2021/07/13 07:08:10;;;;;;;5.92;5.33;;;;;;;24.87;100.00;100539.95;1695232;82;20979;-39
2021/07/13 07:10:37;;;;;;;6.50;4.65;;;;;;;24.91;100.00;100544.87;1693902;82;21575;-43
2021/07/13 07:13:04;;;;;;;7.37;5.10;;;;;;;24.98;100.00;100542.27;1699155;82;21553;-42
2021/07/13 07:15:31;;;;;;;5.15;4.75;;;;;;;25.03;100.00;100539.84;1701985;82;20986;-44
2021/07/13 07:17:58;;;;;;;5.08;4.58;;;;;;;25.08;100.00;100538.78;1692991;82;21058;-37
2021/07/13 07:20:28;;;;;;;6.47;4.97;;;;;;;25.12;100.00;100526.45;1697827;82;20963;-45
2021/07/13 07:22:55;;;;;;;5.58;5.08;;;;;;;25.18;100.00;100525.77;1693911;82;20995;-44
2021/07/13 07:25:22;;;;;;;6.65;6.05;;;;;;;25.22;100.00;100529.84;1694862;84;21003;-40
2021/07/13 07:27:50;;;;;;;4.60;4.12;;;;;;;25.28;100.00;100532.86;1697460;82;21887;-38
2021/07/13 07:30:17;;;;;;;6.75;5.35;;;;;;;25.31;100.00;100526.51;1694103;82;20975;-48
2021/07/13 07:32:45;;;;;;;6.35;4.78;;;;;;;25.35;100.00;100528.33;1697001;82;20998;-47
2021/07/13 07:35:12;;;;;;;5.53;4.83;;;;;;;25.37;100.00;100530.37;1681849;83;21038;-41
2021/07/13 07:37:39;;;;;;;5.08;4.58;;;;;;;25.40;100.00;100521.80;1689704;83;21015;-41
2021/07/13 07:40:07;;;;;;;5.55;5.05;;;;;;;25.43;100.00;100524.19;1682812;83;20958;-41
2021/07/13 07:42:35;;;;;;;5.95;5.35;;;;;;;25.47;100.00;100522.77;1678243;83;20980;-42
2021/07/13 07:45:01;;;;;;;5.65;4.97;;;;;;;25.53;100.00;100527.50;1680782;83;20941;-41
2021/07/13 07:47:30;;;;;;;5.12;4.62;;;;;;;25.57;100.00;100523.86;1681712;83;21522;-40
2021/07/13 07:49:58;;;;;;;7.33;6.12;;;;;;;25.60;100.00;100531.18;1684461;83;21011;-40
2021/07/13 07:52:24;;;;;;;7.22;4.90;;;;;;;25.64;100.00;100527.02;1681395;84;21425;-45
2021/07/13 07:54:52;;;;;;;6.47;5.03;;;;;;;25.71;100.00;100528.50;1683800;84;20983;-45
2021/07/13 07:57:19;;;;;;;6.80;5.10;;;;;;;25.78;100.00;100534.91;1681826;83;21055;-48
2021/07/13 07:59:47;;;;;;;7.17;6.20;;;;;;;25.84;100.00;100534.14;1667224;84;21036;-47
2021/07/13 08:02:15;;;;;;;6.37;5.40;;;;;;;25.91;100.00;100531.55;1685722;84;20978;-55
2021/07/13 08:04:42;;;;;;;5.15;4.62;;;;;;;25.97;100.00;100529.41;1687318;83;21083;-48
2021/07/13 08:07:09;;;;;;;5.50;5.00;;;;;;;26.02;100.00;100529.69;1687083;83;20978;-51
2021/07/13 08:09:35;;;;;;;5.95;5.42;;;;;;;26.06;100.00;100524.19;1672739;83;20974;-54
2021/07/13 08:12:04;;;;;;;6.62;5.03;;;;;;;26.11;100.00;100521.73;1681674;83;20980;-52
2021/07/13 08:14:31;;;;;;;5.10;4.60;;;;;;;26.20;100.00;100532.55;1673693;83;20947;-46
2021/07/13 08:16:57;;;;;;;5.25;4.85;;;;;;;26.23;100.00;100516.64;1686399;83;20987;-56
2021/07/13 08:19:24;;;;;;;5.33;4.80;;;;;;;26.28;100.00;100520.14;1708520;82;20923;-47
2021/07/13 08:21:51;;;;;;;4.87;4.47;;;;;;;26.29;100.00;100519.97;1707307;82;21015;-46
2021/07/13 08:24:18;;;;;;;7.22;5.47;;;;;;;26.32;100.00;100514.63;1683042;83;20966;-53
2021/07/13 08:26:46;;;;;;;5.97;4.42;;;;;;;26.37;100.00;100518.16;1677699;83;21036;-49
2021/07/13 08:29:13;;;;;;;8.33;5.25;;;;;;;26.40;100.00;100524.08;1687444;83;21004;-48
2021/07/13 08:31:41;;;;;;;4.70;4.30;;;;;;;26.43;100.00;100521.48;1681088;83;21031;-45
2021/07/13 08:34:08;;;;;;;7.28;5.35;;;;;;;26.46;100.00;100524.69;1694827;83;21013;-44
2021/07/13 08:36:34;;;;;;;5.70;5.17;;;;;;;26.50;100.00;100523.77;1684455;83;20963;-44
2021/07/13 08:39:01;;;;;;;4.85;4.45;;;;;;;26.54;100.00;100519.13;1682240;83;20983;-44
2021/07/13 08:41:30;;;;;;;6.15;4.42;;;;;;;26.57;100.00;100522.53;1690601;84;20982;-56
2021/07/13 08:43:57;;;;;;;6.10;5.37;;;;;;;26.61;100.00;100528.78;1707183;82;21018;-58
2021/07/13 08:46:25;;;;;;;5.78;4.80;;;;;;;26.65;100.00;100526.50;1689253;83;20966;-49
2021/07/13 08:48:53;;;;;;;5.40;4.90;;;;;;;26.70;100.00;100528.97;1705118;82;20978;-52
2021/07/13 08:51:23;;;;;;;5.17;4.67;;;;;;;26.71;100.00;100525.70;1688248;83;21326;-45
2021/07/13 08:53:51;;;;;;;6.95;5.33;;;;;;;26.73;100.00;100525.00;1706381;82;21573;-54
2021/07/13 08:56:23;;;;;;;5.45;4.92;;;;;;;26.79;100.00;100524.73;1706430;82;20995;-54
2021/07/13 08:58:58;;;;;;;8.83;5.10;;;;;;;26.82;100.00;100518.37;1658033;84;21584;-54
2021/07/13 09:01:43;;;;;;;5.83;4.47;;;;;;;26.87;100.00;100517.27;1653686;85;20977;-44
2021/07/13 09:04:36;;;;;;;5.00;4.58;;;;;;;26.92;100.00;100520.79;1541643;91;21102;-45
2021/07/13 09:07:09;;;;;;;6.17;4.42;;;;;;;26.97;100.00;100519.67;1545804;91;21062;-44
2021/07/13 09:09:38;;;;;;;4.65;4.25;;;;;;;27.01;100.00;100511.91;1512353;93;21031;-44
2021/07/13 09:12:10;;;;;;;5.60;5.00;;;;;;;27.04;100.00;100515.62;1511408;93;21082;-43
2021/07/13 09:15:01;;;;;;;5.87;4.50;;;;;;;27.08;100.00;100516.93;1486396;95;21845;-46
2021/07/13 09:17:43;;;;;;;5.37;4.95;;;;;;;27.12;100.00;100516.34;1503101;93;21133;-45
2021/07/13 09:23:04;;;;;;;4.80;4.00;;;;;;;27.23;100.00;100509.52;1414593;100;21567;-42
2021/07/13 09:25:42;;;;;;;5.03;4.05;;;;;;;27.26;100.00;100505.00;1415521;100;21104;-40
2021/07/13 09:28:19;;;;;;;5.10;4.37;;;;;;;27.30;100.00;100505.47;1415349;100;21071;-45
2021/07/13 09:30:52;;;;;;;5.20;4.53;;;;;;;27.34;100.00;100505.37;1414682;100;21047;-52
2021/07/13 09:33:28;;;;;;;5.97;4.85;;;;;;;27.38;100.00;100506.16;1412264;100;21157;-44
2021/07/13 09:36:08;;;;;;;4.33;3.92;;;;;;;27.43;100.00;100506.09;1448267;97;21138;-44
2021/07/13 09:38:42;;;;;;;4.70;4.30;;;;;;;27.46;100.00;100507.05;1438994;99;21127;-52
2021/07/13 09:41:15;;;;;;;6.00;5.10;;;;;;;27.50;100.00;100498.78;1432237;99;21567;-55
2021/07/13 09:43:53;;;;;;;4.22;3.80;;;;;;;27.53;100.00;100502.48;1466875;96;21824;-48
2021/07/13 09:46:30;;;;;;;5.60;3.75;;;;;;;27.58;100.00;100501.35;1465720;96;21093;-44
2021/07/13 09:49:25;;;;;;;6.03;4.45;;;;;;;27.61;100.00;100500.41;1467494;96;21148;-45
2021/07/13 09:52:04;;;;;;;4.37;3.95;;;;;;;27.65;100.00;100508.25;1468105;96;21084;-45
2021/07/13 09:54:40;;;;;;;7.20;4.40;;;;;;;27.71;100.00;100508.80;1466576;96;21576;-50
2021/07/13 09:57:17;;;;;;;6.12;5.17;;;;;;;27.75;100.00;100503.26;1466271;96;21609;-44
2021/07/13 09:59:48;;;;;;;4.50;4.10;;;;;;;27.80;100.00;100499.39;1494918;90;21070;-41
2021/07/13 10:02:16;;;;;;;8.78;4.55;;;;;;;27.85;100.00;100500.19;1627536;84;21483;-42
2021/07/13 10:04:42;;;;;;;7.67;4.67;;;;;;;27.88;100.00;100503.36;1661628;83;21064;-48
2021/07/13 10:07:12;;;;;;;4.55;4.15;;;;;;;27.92;100.00;100496.44;1660359;84;21055;-49
2021/07/13 10:09:50;;;;;;;5.15;4.60;;;;;;;27.95;100.00;100501.50;1685194;83;21101;-42
2021/07/13 10:12:22;;;;;;;5.37;4.87;;;;;;;27.97;100.00;100496.67;1688957;83;20991;-42
2021/07/13 10:14:55;;;;;;;5.50;4.15;;;;;;;28.01;100.00;100494.36;1683609;83;21016;-43
2021/07/13 10:17:24;;;;;;;5.83;4.87;;;;;;;28.05;100.00;100495.13;1685509;83;22055;-50
2021/07/13 10:20:07;;;;;;;4.55;4.15;;;;;;;28.11;100.00;100496.72;1684248;83;21919;-47
2021/07/13 10:22:35;;;;;;;5.28;4.05;;;;;;;28.13;100.00;100491.36;1631436;85;21014;-44
2021/07/13 10:25:02;;;;;;;4.58;4.17;;;;;;;28.16;100.00;100494.22;1679582;83;21466;-48
2021/07/13 10:27:33;;;;;;;4.00;3.60;;;;;;;28.20;100.00;100503.20;1683069;83;21032;-42
2021/07/13 10:30:07;;;;;;;6.37;4.37;;;;;;;28.24;100.00;100499.51;1677187;83;20995;-48
2021/07/13 10:32:36;;;;;;;6.55;4.40;;;;;;;28.29;100.00;100503.84;1682314;83;21059;-46
2021/07/13 10:35:25;;;;;;;4.97;4.45;;;;;;;28.33;100.00;100497.45;1689273;82;21037;-45
2021/07/13 10:38:00;;;;;;;5.92;4.42;;;;;;;28.37;100.00;100497.34;1702274;82;21020;-54
2021/07/13 10:40:33;;;;;;;5.78;4.35;;;;;;;28.39;100.00;100495.24;1698265;83;21004;-54
2021/07/13 10:43:05;;;;;;;4.28;3.87;;;;;;;28.41;100.00;100499.47;1700904;83;20984;-48
2021/07/13 10:45:42;;;;;;;4.55;4.15;;;;;;;28.44;100.00;100492.22;1701703;82;21020;-48
2021/07/13 10:48:20;;;;;;;8.95;8.05;;;;;;;28.47;100.00;100500.56;1701821;83;21471;-56
2021/07/13 10:50:53;;;;;;;5.12;4.62;;;;;;;28.50;100.00;100497.43;1705038;82;21031;-51
2021/07/13 10:53:40;;;;;;;6.08;4.35;;;;;;;28.54;100.00;100495.95;1706912;83;20992;-49
2021/07/13 10:56:17;;;;;;;4.67;4.28;;;;;;;28.57;100.00;100489.20;1704141;82;21542;-45
2021/07/13 10:58:51;;;;;;;6.05;5.00;;;;;;;28.59;100.00;100483.83;1703385;82;20956;-40
2021/07/13 11:01:40;;;;;;;6.00;5.50;;;;;;;28.63;100.00;100484.28;1696374;82;20976;-41
2021/07/13 11:04:06;;;;;;;5.40;4.70;;;;;;;28.65;100.00;100487.63;1701110;83;21040;-40
2021/07/13 11:06:50;;;;;;;4.80;4.40;;;;;;;28.67;100.00;100491.02;1696932;83;21562;-46
2021/07/13 11:09:27;;;;;;;4.87;4.12;;;;;;;28.69;100.00;100488.37;1696620;82;21000;-47
2021/07/13 11:12:08;;;;;;;6.20;4.03;;;;;;;28.71;100.00;100480.49;1705551;82;20984;-44
2021/07/13 11:14:54;;;;;;;4.35;3.95;;;;;;;28.73;100.00;100473.74;1701839;82;20968;-43
2021/07/13 11:17:23;;;;;;;4.85;4.35;;;;;;;28.76;100.00;100477.43;1697980;82;21043;-42
2021/07/13 11:19:51;;;;;;;4.08;3.52;;;;;;;28.80;100.00;100473.73;1703597;82;20984;-40
2021/07/13 11:22:19;;;;;;;6.25;4.75;;;;;;;28.82;99.99;100475.21;1693981;83;20984;-39
2021/07/13 11:24:46;;;;;;;4.87;3.95;;;;;;;28.87;99.23;100474.59;1696287;82;20988;-42
2021/07/13 11:27:12;;;;;;;5.28;4.20;;;;;;;28.90;99.37;100479.64;1696024;82;20960;-43
2021/07/13 11:29:44;;;;;;;4.85;4.22;;;;;;;28.93;100.00;100483.37;1703089;83;20984;-42
2021/07/13 11:32:11;;;;;;;5.87;4.55;;;;;;;28.93;100.00;100475.14;1684062;83;21011;-45
2021/07/13 11:34:38;;;;;;;4.85;4.45;;;;;;;28.97;100.00;100479.66;1701610;82;20984;-44
2021/07/13 11:37:06;;;;;;;4.83;4.33;;;;;;;28.99;100.00;100472.07;1690046;82;21036;-44